Time;durP1;ratioP1;P1;durP2;ratioP2;P2;SDS_P1;SDS_P2;PMS_P1;PMS_P2;Temp;Humidity;BMP_temperature;BMP_pressure;BME280_temperature;BME280_humidity;BME280_pressure;Samples;Min_cycle;Max_cycle;Signal;HPM_P1;HPM_P2
2020/12/26 00:01:33;;;;;;;3.92;1.33;;;4.30;99.90;;;;;;4966009;28;20037;-91
2020/12/26 00:03:59;;;;;;;2.97;1.50;;;4.30;99.90;;;;;;4978980;28;20019;-91
2020/12/26 00:06:24;;;;;;;4.30;1.60;;;4.30;99.90;;;;;;4978169;28;20031;-93
2020/12/26 00:08:51;;;;;;;3.13;1.67;;;4.30;99.90;;;;;;4981539;28;20049;-91
2020/12/26 00:11:21;;;;;;;4.70;2.00;;;4.30;99.90;;;;;;4986802;28;20026;-90
2020/12/26 00:13:49;;;;;;;5.63;1.85;;;4.40;99.90;;;;;;4986587;28;20026;-94
2020/12/26 00:16:15;;;;;;;4.47;1.58;;;4.30;99.90;;;;;;4986421;28;20026;-92
2020/12/26 00:18:42;;;;;;;5.13;1.80;;;4.40;99.90;;;;;;4986491;28;20042;-93
2020/12/26 00:21:09;;;;;;;2.65;2.20;;;4.40;99.90;;;;;;4985876;28;20022;-94
2020/12/26 00:23:35;;;;;;;2.22;1.23;;;4.40;99.90;;;;;;4970563;28;20034;-92
2020/12/26 00:26:01;;;;;;;4.22;1.60;;;4.40;99.90;;;;;;4986595;28;20041;-93
2020/12/26 00:28:27;;;;;;;3.08;1.50;;;4.40;99.90;;;;;;4995668;28;20073;-93
2020/12/26 00:30:53;;;;;;;2.58;1.52;;;4.40;99.90;;;;;;5021654;28;20060;-93
2020/12/26 00:33:19;;;;;;;3.47;1.52;;;4.30;99.90;;;;;;5005579;28;20038;-92
2020/12/26 00:35:45;;;;;;;5.68;1.52;;;4.40;99.90;;;;;;5021324;28;20029;-93
2020/12/26 00:38:10;;;;;;;2.58;1.77;;;4.30;99.90;;;;;;5021296;28;20033;-93
2020/12/26 00:40:36;;;;;;;1.65;1.30;;;4.30;99.90;;;;;;5021156;28;20026;-93
2020/12/26 00:43:02;;;;;;;3.95;1.52;;;4.40;99.90;;;;;;5021242;28;20053;-92
2020/12/26 00:45:28;;;;;;;8.10;1.55;;;4.40;99.90;;;;;;5020620;28;20034;-93
2020/12/26 00:47:53;;;;;;;6.65;1.55;;;4.30;99.90;;;;;;5021318;28;20038;-91
2020/12/26 00:50:19;;;;;;;3.08;1.67;;;4.40;99.90;;;;;;5021091;28;20365;-91
2020/12/26 00:52:45;;;;;;;1.50;0.95;;;4.40;99.90;;;;;;5021255;28;20097;-92
2020/12/26 00:55:12;;;;;;;4.18;1.70;;;4.40;99.90;;;;;;5021089;28;20018;-91
2020/12/26 00:57:42;;;;;;;3.75;1.90;;;4.40;99.90;;;;;;5021303;28;20041;-91
2020/12/26 01:00:08;;;;;;;3.00;1.58;;;4.40;99.90;;;;;;5005044;28;20124;-91
2020/12/26 01:02:33;;;;;;;2.42;1.60;;;4.40;99.90;;;;;;5020807;28;20048;-91
2020/12/26 01:04:59;;;;;;;4.80;1.40;;;4.40;99.90;;;;;;5020875;28;20475;-91
2020/12/26 01:07:25;;;;;;;2.03;1.38;;;4.40;99.90;;;;;;5021140;28;20022;-91
2020/12/26 01:09:50;;;;;;;2.15;1.27;;;4.40;99.90;;;;;;5020486;28;20025;-92
2020/12/26 01:12:16;;;;;;;1.25;1.15;;;4.40;99.90;;;;;;5020746;28;20079;-92
2020/12/26 01:14:42;;;;;;;2.38;1.38;;;4.50;99.90;;;;;;5020949;28;20026;-91
2020/12/26 01:17:09;;;;;;;1.15;1.05;;;4.50;99.90;;;;;;5004993;28;20026;-92
2020/12/26 01:19:35;;;;;;;3.70;1.00;;;4.50;99.90;;;;;;5023035;28;20471;-91
2020/12/26 01:22:00;;;;;;;2.13;1.50;;;4.50;99.90;;;;;;5029298;28;20053;-92
2020/12/26 01:24:26;;;;;;;6.82;1.58;;;4.50;99.90;;;;;;5028571;28;20025;-91
2020/12/26 01:26:52;;;;;;;3.30;1.20;;;4.50;99.90;;;;;;5028374;28;20026;-92
2020/12/26 01:29:18;;;;;;;3.22;1.05;;;4.60;99.90;;;;;;5014007;28;20089;-91
2020/12/26 01:31:53;;;;;;;3.38;1.48;;;4.60;99.90;;;;;;4990235;28;20049;-92
2020/12/26 01:34:19;;;;;;;9.85;1.40;;;4.60;99.90;;;;;;4986198;28;20036;-91
2020/12/26 01:36:52;;;;;;;2.97;1.10;;;4.70;99.90;;;;;;4984704;28;20061;-91
2020/12/26 01:39:18;;;;;;;5.90;1.30;;;4.70;99.90;;;;;;4984161;28;20046;-91
2020/12/26 01:41:51;;;;;;;3.50;1.05;;;4.70;99.90;;;;;;4984369;28;20026;-91
2020/12/26 01:44:17;;;;;;;2.78;1.10;;;4.80;99.90;;;;;;4984071;28;20023;-91
2020/12/26 01:46:45;;;;;;;1.92;1.13;;;4.70;99.90;;;;;;4984139;28;20023;-91
2020/12/26 01:49:11;;;;;;;2.78;1.27;;;4.70;99.90;;;;;;4983648;28;20129;-92
2020/12/26 01:51:37;;;;;;;2.28;1.20;;;4.80;99.90;;;;;;4984339;28;20027;-92
2020/12/26 01:54:03;;;;;;;2.03;1.40;;;4.80;99.90;;;;;;4986366;28;20049;-91
2020/12/26 01:56:30;;;;;;;2.03;0.95;;;4.70;99.90;;;;;;4988810;28;20027;-92
2020/12/26 01:58:56;;;;;;;1.60;1.15;;;4.70;99.90;;;;;;4990687;28;20089;-90
2020/12/26 02:01:35;;;;;;;3.17;1.20;;;4.70;99.90;;;;;;4985802;28;20030;-90
2020/12/26 02:04:02;;;;;;;2.13;0.93;;;4.70;99.90;;;;;;4989169;28;20030;-92
2020/12/26 02:06:42;;;;;;;1.20;1.02;;;4.70;99.90;;;;;;4988187;28;20022;-90
2020/12/26 02:09:08;;;;;;;2.35;1.25;;;4.70;99.90;;;;;;5001447;28;20046;-91
2020/12/26 02:11:34;;;;;;;3.42;1.23;;;4.70;99.90;;;;;;5001923;28;20030;-91
2020/12/26 02:14:00;;;;;;;2.00;1.23;;;4.80;99.90;;;;;;5002049;28;20032;-91
2020/12/26 02:16:26;;;;;;;3.45;1.35;;;4.70;99.90;;;;;;5001685;28;20054;-91
2020/12/26 02:18:52;;;;;;;4.82;1.17;;;4.70;99.90;;;;;;4996075;28;20049;-92
2020/12/26 02:21:22;;;;;;;5.32;1.75;;;4.80;99.90;;;;;;4989977;28;20058;-90
2020/12/26 02:23:48;;;;;;;3.27;1.57;;;4.80;99.90;;;;;;4988878;28;20022;-92
2020/12/26 02:26:14;;;;;;;2.90;1.73;;;4.80;99.90;;;;;;4986864;28;20034;-91
2020/12/26 02:28:40;;;;;;;8.55;2.13;;;4.80;99.90;;;;;;4985706;28;20050;-92
2020/12/26 02:31:07;;;;;;;2.50;1.83;;;4.80;99.90;;;;;;4985379;28;20026;-93
2020/12/26 02:33:34;;;;;;;2.47;1.50;;;4.80;99.90;;;;;;4985237;28;20056;-94
2020/12/26 02:36:04;;;;;;;1.92;1.30;;;4.80;99.90;;;;;;4985035;28;20042;-93
2020/12/26 02:38:30;;;;;;;1.95;1.20;;;4.90;99.90;;;;;;4984186;28;20092;-90
2020/12/26 02:40:56;;;;;;;3.13;1.30;;;4.80;99.90;;;;;;4984145;28;20023;-92
2020/12/26 02:43:23;;;;;;;6.70;1.40;;;4.80;99.90;;;;;;4983831;28;20057;-92
2020/12/26 02:45:50;;;;;;;1.67;1.20;;;4.80;99.90;;;;;;4983907;28;20030;-92
2020/12/26 02:48:16;;;;;;;1.20;1.10;;;4.80;99.90;;;;;;4983264;28;20040;-90
2020/12/26 02:50:42;;;;;;;2.35;1.40;;;4.80;99.90;;;;;;4983005;28;20058;-93
2020/12/26 02:53:08;;;;;;;3.53;0.93;;;4.90;99.90;;;;;;4983167;28;20530;-92
2020/12/26 02:55:34;;;;;;;0.65;0.65;;;4.80;99.90;;;;;;4983656;28;20030;-92
2020/12/26 02:58:00;;;;;;;4.45;1.10;;;4.90;99.90;;;;;;4983231;28;20026;-92
2020/12/26 03:00:26;;;;;;;3.10;1.65;;;4.90;99.90;;;;;;4985427;28;20027;-91
2020/12/26 03:02:52;;;;;;;1.20;1.05;;;4.90;99.90;;;;;;4989467;28;20040;-92
2020/12/26 03:05:18;;;;;;;0.55;0.55;;;4.90;99.90;;;;;;4989707;28;20038;-93
2020/12/26 03:07:43;;;;;;;0.90;0.75;;;5.00;99.90;;;;;;4989740;28;20155;-91
2020/12/26 03:10:09;;;;;;;1.58;0.90;;;5.00;99.90;;;;;;4989480;28;20050;-92
2020/12/26 03:12:35;;;;;;;2.75;0.88;;;5.00;99.90;;;;;;4989363;28;20026;-93
2020/12/26 03:15:00;;;;;;;5.03;1.10;;;5.10;99.90;;;;;;4989800;28;20080;-92
2020/12/26 03:17:26;;;;;;;1.17;0.80;;;5.10;99.90;;;;;;4989735;28;20029;-92
2020/12/26 03:19:52;;;;;;;4.55;1.15;;;5.10;99.90;;;;;;4989461;28;20034;-92
2020/12/26 03:22:18;;;;;;;3.28;1.98;;;5.10;99.90;;;;;;4989032;28;20061;-92
2020/12/26 03:24:44;;;;;;;2.55;1.63;;;5.10;99.90;;;;;;4988928;28;20045;-93
2020/12/26 03:27:10;;;;;;;5.28;2.40;;;5.20;99.90;;;;;;4989273;28;20113;-92
2020/12/26 03:29:36;;;;;;;3.88;2.15;;;5.20;99.90;;;;;;4989138;28;20078;-92
2020/12/26 03:32:02;;;;;;;4.82;2.58;;;5.20;99.90;;;;;;4989469;28;20042;-92
2020/12/26 03:34:27;;;;;;;3.35;1.73;;;5.20;99.90;;;;;;4992316;28;20030;-92
2020/12/26 03:36:53;;;;;;;5.45;1.42;;;5.30;99.90;;;;;;4991563;28;20531;-93
2020/12/26 03:39:19;;;;;;;1.30;0.68;;;5.30;99.90;;;;;;4991547;28;20038;-93
2020/12/26 03:41:45;;;;;;;0.57;0.50;;;5.40;99.90;;;;;;4992315;28;20094;-92
2020/12/26 03:44:10;;;;;;;1.90;0.40;;;5.40;99.90;;;;;;4995678;28;20440;-91
2020/12/26 03:46:36;;;;;;;0.70;0.57;;;5.30;99.90;;;;;;4995290;28;20026;-92
2020/12/26 03:49:02;;;;;;;0.60;0.45;;;5.40;99.90;;;;;;4994332;28;20030;-92
2020/12/26 03:51:28;;;;;;;0.98;0.50;;;5.40;99.90;;;;;;4992783;28;20033;-92
2020/12/26 03:53:53;;;;;;;0.75;0.55;;;5.40;99.90;;;;;;4991848;28;20094;-92
2020/12/26 03:56:19;;;;;;;1.65;0.60;;;5.40;99.90;;;;;;4995642;28;20018;-92
2020/12/26 03:58:45;;;;;;;0.50;0.50;;;5.40;99.90;;;;;;4991522;28;20034;-91
2020/12/26 04:01:11;;;;;;;1.88;0.70;;;5.40;99.90;;;;;;4989280;28;20042;-91
2020/12/26 04:03:37;;;;;;;1.50;0.88;;;5.50;99.90;;;;;;4989075;28;20057;-91
2020/12/26 04:06:03;;;;;;;0.70;0.70;;;5.50;99.90;;;;;;4988588;28;20099;-92
2020/12/26 04:08:29;;;;;;;0.52;0.50;;;5.50;99.90;;;;;;4988966;28;20033;-92
2020/12/26 04:10:54;;;;;;;2.03;0.63;;;5.50;99.90;;;;;;4992973;28;20036;-92
2020/12/26 04:13:20;;;;;;;0.50;0.50;;;5.50;99.90;;;;;;4989307;28;20031;-92
2020/12/26 04:15:46;;;;;;;1.90;0.98;;;5.50;99.90;;;;;;4988525;28;20073;-91
2020/12/26 04:18:12;;;;;;;3.08;0.68;;;5.50;99.90;;;;;;4993207;28;20030;-92
2020/12/26 04:20:37;;;;;;;1.52;1.00;;;5.60;99.90;;;;;;4993346;28;20128;-92
2020/12/26 04:23:03;;;;;;;1.33;0.80;;;5.60;99.90;;;;;;4992504;28;20026;-92
2020/12/26 04:25:30;;;;;;;1.10;0.93;;;5.70;99.90;;;;;;5001654;28;20498;-92
2020/12/26 04:27:56;;;;;;;1.17;1.00;;;5.70;99.90;;;;;;4988109;28;20396;-91
2020/12/26 04:30:22;;;;;;;2.10;0.95;;;5.70;99.90;;;;;;5004699;28;20038;-93
2020/12/26 04:32:47;;;;;;;1.13;0.77;;;5.80;99.90;;;;;;5020919;28;20110;-92
2020/12/26 04:35:13;;;;;;;0.65;0.63;;;5.80;99.90;;;;;;5020698;28;20030;-92
2020/12/26 04:37:39;;;;;;;1.88;0.60;;;5.90;99.90;;;;;;5020957;28;20068;-92
2020/12/26 04:40:05;;;;;;;0.70;0.70;;;5.90;99.90;;;;;;5020939;28;20057;-91
2020/12/26 04:42:32;;;;;;;1.13;0.80;;;5.90;99.90;;;;;;5004553;28;20032;-92
2020/12/26 04:44:58;;;;;;;1.25;0.77;;;5.90;99.90;;;;;;5020927;28;20025;-91
2020/12/26 04:47:30;;;;;;;1.17;0.55;;;5.90;99.90;;;;;;5020726;28;20053;-92
2020/12/26 04:50:00;;;;;;;5.25;0.73;;;6.00;99.90;;;;;;5021144;28;20499;-93
2020/12/26 04:52:29;;;;;;;1.58;1.17;;;6.00;99.90;;;;;;5021163;28;20030;-92
2020/12/26 04:54:56;;;;;;;1.60;0.90;;;5.90;99.90;;;;;;5020636;28;20033;-92
2020/12/26 04:57:22;;;;;;;0.95;0.88;;;6.00;99.90;;;;;;5004062;28;20060;-92
2020/12/26 04:59:48;;;;;;;1.73;1.38;;;6.00;99.90;;;;;;5002208;28;20044;-92
2020/12/26 05:02:15;;;;;;;2.92;1.92;;;6.00;99.90;;;;;;5020249;28;20026;-92
2020/12/26 05:04:42;;;;;;;4.63;2.20;;;6.00;99.90;;;;;;5020524;28;20106;-92
2020/12/26 05:07:08;;;;;;;5.07;2.60;;;6.10;99.90;;;;;;5020316;28;20022;-91
2020/12/26 05:09:33;;;;;;;2.95;2.20;;;6.10;99.90;;;;;;5003428;28;20040;-91
2020/12/26 05:12:01;;;;;;;6.43;3.63;;;6.20;99.90;;;;;;5021675;28;20037;-92
2020/12/26 05:14:31;;;;;;;2.80;1.95;;;6.20;99.90;;;;;;5003978;28;20029;-92
2020/12/26 05:16:57;;;;;;;4.03;1.70;;;6.20;99.90;;;;;;5004376;28;20026;-91
2020/12/26 05:19:24;;;;;;;2.55;1.08;;;6.30;99.90;;;;;;5004125;28;20049;-93
2020/12/26 05:21:54;;;;;;;4.20;1.30;;;6.30;99.90;;;;;;5004351;28;20117;-92
2020/12/26 05:24:20;;;;;;;1.23;0.80;;;6.30;99.90;;;;;;5003091;28;20029;-92
2020/12/26 05:26:49;;;;;;;2.58;0.90;;;6.30;99.90;;;;;;5006016;28;20034;-92
2020/12/26 05:29:17;;;;;;;3.67;1.05;;;6.30;99.90;;;;;;5013307;28;20046;-91
2020/12/26 05:31:53;;;;;;;1.63;1.00;;;6.30;99.90;;;;;;5014300;28;20037;-92
2020/12/26 05:34:20;;;;;;;1.60;1.00;;;6.30;99.90;;;;;;5014204;28;20022;-92
2020/12/26 05:36:46;;;;;;;1.23;0.80;;;6.30;99.90;;;;;;5012533;28;20030;-93
2020/12/26 05:39:13;;;;;;;1.85;0.70;;;6.30;99.90;;;;;;5006088;28;20129;-91
2020/12/26 05:41:41;;;;;;;1.33;0.90;;;6.30;99.90;;;;;;5004818;28;20034;-92
2020/12/26 05:44:07;;;;;;;2.38;1.00;;;6.30;99.90;;;;;;5004216;28;20029;-92
2020/12/26 05:46:33;;;;;;;0.93;0.90;;;6.30;99.90;;;;;;5003747;28;20025;-93
2020/12/26 05:49:18;;;;;;;1.58;0.60;;;6.40;99.90;;;;;;5003984;28;20491;-91
2020/12/26 05:51:45;;;;;;;1.50;0.90;;;6.40;99.90;;;;;;5004009;28;20094;-91
2020/12/26 05:54:12;;;;;;;2.30;1.00;;;6.40;99.90;;;;;;5005734;28;20026;-92
2020/12/26 05:56:37;;;;;;;2.85;1.30;;;6.50;99.90;;;;;;5009327;28;20018;-92
2020/12/26 05:59:24;;;;;;;2.53;1.55;;;6.50;99.90;;;;;;5020932;28;20041;-91
2020/12/26 06:01:50;;;;;;;1.88;0.88;;;6.40;99.90;;;;;;5004005;28;20018;-92
2020/12/26 06:04:19;;;;;;;3.83;1.38;;;6.40;99.90;;;;;;5004404;28;20037;-93
2020/12/26 06:06:51;;;;;;;6.38;1.40;;;6.40;99.90;;;;;;5004389;28;20026;-91
2020/12/26 06:09:19;;;;;;;2.22;1.20;;;6.40;99.90;;;;;;5004252;28;20083;-93
2020/12/26 06:11:46;;;;;;;1.67;1.10;;;6.40;99.90;;;;;;5002462;28;20541;-92
2020/12/26 06:14:16;;;;;;;4.55;1.40;;;6.40;99.90;;;;;;5016730;28;20034;-91
2020/12/26 06:16:55;;;;;;;3.22;1.40;;;6.40;99.90;;;;;;4994646;28;20023;-91
2020/12/26 06:19:27;;;;;;;2.53;1.15;;;6.40;99.90;;;;;;5010396;28;20054;-90
2020/12/26 06:21:55;;;;;;;2.00;1.13;;;6.40;99.90;;;;;;5011499;28;20038;-91
2020/12/26 06:24:21;;;;;;;2.15;1.30;;;6.30;99.90;;;;;;5021017;28;20018;-91
2020/12/26 06:26:51;;;;;;;1.25;1.15;;;6.40;99.90;;;;;;4989726;28;20164;-91
2020/12/26 06:29:21;;;;;;;2.03;1.20;;;6.40;99.90;;;;;;5007740;28;20113;-91
2020/12/26 06:31:50;;;;;;;2.17;1.20;;;6.40;99.90;;;;;;5013510;28;20045;-91
2020/12/26 06:34:20;;;;;;;2.03;1.27;;;6.40;99.90;;;;;;4994399;28;20479;-91
2020/12/26 06:36:46;;;;;;;3.45;1.10;;;6.40;99.90;;;;;;4990385;28;20026;-91
2020/12/26 06:39:31;;;;;;;3.00;1.02;;;6.40;99.90;;;;;;5002058;28;20045;-91
2020/12/26 06:42:13;;;;;;;2.80;1.00;;;6.40;99.90;;;;;;5005543;28;20026;-91
2020/12/26 06:44:39;;;;;;;0.88;0.88;;;6.40;99.90;;;;;;5011340;28;20072;-92
2020/12/26 06:47:05;;;;;;;3.90;1.27;;;6.40;99.90;;;;;;4987852;28;20030;-91
2020/12/26 06:49:31;;;;;;;2.05;0.88;;;6.50;99.90;;;;;;4985161;28;20033;-91
2020/12/26 06:51:57;;;;;;;2.13;1.60;;;6.50;99.90;;;;;;5001600;28;20018;-92
2020/12/26 06:54:40;;;;;;;4.80;2.40;;;6.60;99.90;;;;;;4986601;28;20778;-91
2020/12/26 06:57:07;;;;;;;2.60;1.70;;;6.50;99.90;;;;;;5002966;28;20037;-92
2020/12/26 06:59:34;;;;;;;2.92;2.08;;;6.60;99.90;;;;;;4986958;28;20041;-91
2020/12/26 07:02:08;;;;;;;4.95;1.55;;;6.60;99.90;;;;;;4984640;28;20061;-91
2020/12/26 07:04:41;;;;;;;1.98;1.80;;;6.60;99.90;;;;;;4986473;28;20045;-90
2020/12/26 07:07:10;;;;;;;1.70;1.60;;;6.60;99.90;;;;;;5003820;28;20042;-90
2020/12/26 07:09:36;;;;;;;1.73;1.50;;;6.50;99.90;;;;;;5007583;28;20030;-91
2020/12/26 07:12:05;;;;;;;3.30;1.52;;;6.60;99.90;;;;;;4994933;28;20022;-90
2020/12/26 07:14:31;;;;;;;5.03;1.30;;;6.50;99.90;;;;;;5012627;28;20023;-91
2020/12/26 07:16:58;;;;;;;3.53;1.50;;;6.50;99.90;;;;;;4992236;28;20037;-92
2020/12/26 07:19:38;;;;;;;0.95;0.85;;;6.50;99.90;;;;;;4986668;28;20156;-89
2020/12/26 07:22:20;;;;;;;1.25;1.13;;;6.50;99.90;;;;;;5003294;28;20026;-90
2020/12/26 07:24:51;;;;;;;1.48;1.25;;;6.50;99.90;;;;;;5005788;28;20026;-91
2020/12/26 07:27:16;;;;;;;0.80;0.80;;;6.40;99.90;;;;;;4983921;28;20057;-92
2020/12/26 07:29:50;;;;;;;2.60;1.60;;;6.40;99.90;;;;;;4986628;28;20038;-91
2020/12/26 07:32:43;;;;;;;2.95;2.00;;;6.40;99.90;;;;;;4993466;28;20018;-91
2020/12/26 07:35:12;;;;;;;3.30;1.90;;;6.40;99.90;;;;;;5005158;28;20032;-91
2020/12/26 07:37:42;;;;;;;2.58;2.00;;;6.40;99.90;;;;;;4986593;28;20037;-92
2020/12/26 07:40:09;;;;;;;3.10;2.10;;;6.40;99.90;;;;;;4987019;28;20026;-88
2020/12/26 07:42:35;;;;;;;2.92;1.40;;;6.40;99.90;;;;;;4985381;28;20034;-89
2020/12/26 07:45:15;;;;;;;2.00;1.13;;;6.40;99.90;;;;;;5001981;28;20023;-90
2020/12/26 07:47:45;;;;;;;4.70;2.03;;;6.30;99.90;;;;;;4986897;28;20100;-93
2020/12/26 07:50:11;;;;;;;2.53;1.50;;;6.40;99.90;;;;;;5012430;28;20022;-92
2020/12/26 07:52:37;;;;;;;1.52;1.00;;;6.40;99.90;;;;;;4988641;28;20905;-93
2020/12/26 07:55:04;;;;;;;3.30;1.17;;;6.40;99.90;;;;;;5015375;28;20054;-92
2020/12/26 07:57:30;;;;;;;7.53;2.47;;;6.40;99.90;;;;;;5003992;28;20383;-91
2020/12/26 07:59:56;;;;;;;1.52;1.00;;;6.40;99.90;;;;;;4997579;28;20037;-91
2020/12/26 08:02:22;;;;;;;1.10;1.00;;;6.40;99.90;;;;;;5013634;28;20105;-91
2020/12/26 08:04:49;;;;;;;1.80;1.10;;;6.40;99.90;;;;;;4997151;28;20109;-91
2020/12/26 08:07:17;;;;;;;1.33;0.98;;;6.40;99.90;;;;;;4982539;28;20034;-91
2020/12/26 08:09:54;;;;;;;2.83;1.40;;;6.40;99.90;;;;;;4996853;28;20432;-91
2020/12/26 08:12:21;;;;;;;7.63;1.98;;;6.40;99.90;;;;;;5013286;28;20120;-91
2020/12/26 08:15:00;;;;;;;6.00;1.70;;;6.40;99.90;;;;;;5014344;28;20104;-91
2020/12/26 08:17:28;;;;;;;3.40;1.92;;;6.40;99.90;;;;;;5012376;28;20034;-91
2020/12/26 08:19:59;;;;;;;6.20;2.50;;;6.40;99.90;;;;;;4993590;28;20030;-92
2020/12/26 08:22:25;;;;;;;5.32;1.63;;;6.40;99.90;;;;;;4996622;28;20050;-91
2020/12/26 08:25:04;;;;;;;8.02;1.83;;;6.40;99.90;;;;;;4996488;28;20039;-91
2020/12/26 08:27:31;;;;;;;6.68;1.60;;;6.40;99.90;;;;;;4993469;28;20029;-93
2020/12/26 08:30:04;;;;;;;3.65;1.67;;;6.40;99.90;;;;;;4993175;28;20038;-92
2020/12/26 08:32:35;;;;;;;4.10;1.60;;;6.40;99.90;;;;;;4995158;28;20014;-92
2020/12/26 08:35:05;;;;;;;1.27;1.08;;;6.40;99.90;;;;;;5000055;28;20089;-90
2020/12/26 08:37:53;;;;;;;;;;;;;;;;;;;;;
2020/12/26 08:40:19;;;;;;;3.35;1.15;;;6.40;99.90;;;;;;5003814;28;20388;-91
2020/12/26 08:42:48;;;;;;;4.43;0.80;;;6.40;99.90;;;;;;5013491;28;20029;-93
2020/12/26 08:45:31;;;;;;;1.63;0.88;;;6.50;99.90;;;;;;5014992;28;20018;-91
2020/12/26 08:48:15;;;;;;;6.55;1.80;;;6.50;99.90;;;;;;5016639;28;20006;-92
2020/12/26 08:50:59;;;;;;;5.43;1.45;;;6.50;99.90;;;;;;5033159;28;20018;-91
2020/12/26 08:53:28;;;;;;;3.55;1.10;;;6.50;99.90;;;;;;5031738;28;20025;-91
2020/12/26 08:55:59;;;;;;;2.97;1.30;;;6.50;99.90;;;;;;5008829;28;20030;-92
2020/12/26 08:58:32;;;;;;;3.00;0.80;;;6.40;99.90;;;;;;5007459;28;20026;-91
2020/12/26 09:01:05;;;;;;;1.85;0.75;;;6.50;99.90;;;;;;5005943;28;20055;-92
2020/12/26 09:03:37;;;;;;;2.83;0.88;;;6.40;99.90;;;;;;5006702;28;20029;-92
2020/12/26 09:06:13;;;;;;;1.73;0.93;;;6.40;99.90;;;;;;5004726;28;20479;-91
2020/12/26 09:08:38;;;;;;;4.07;1.10;;;6.40;99.90;;;;;;5011866;28;20030;-92
2020/12/26 09:11:10;;;;;;;2.53;1.17;;;6.30;99.90;;;;;;5005685;28;20074;-92
2020/12/26 09:13:38;;;;;;;2.17;1.20;;;6.30;99.90;;;;;;5007550;28;20023;-92
2020/12/26 09:16:19;;;;;;;2.63;1.35;;;6.20;99.90;;;;;;4989307;28;20021;-92
2020/12/26 09:18:45;;;;;;;;;;;6.30;99.90;;;;;;5015323;28;20034;-92
2020/12/26 09:21:24;;;;;;;1.63;1.00;;;6.20;99.90;;;;;;5012784;28;19996;-92
2020/12/26 09:23:52;;;;;;;3.97;1.30;;;6.20;99.90;;;;;;5018612;28;20018;-91
2020/12/26 09:26:21;;;;;;;3.25;1.00;;;6.20;99.90;;;;;;5022019;28;20100;-92
2020/12/26 09:28:51;;;;;;;5.97;1.30;;;6.10;99.90;;;;;;5021574;28;20103;-91
2020/12/26 09:31:26;;;;;;;6.63;1.20;;;6.10;99.90;;;;;;4996908;28;20128;-92
2020/12/26 09:34:01;;;;;;;3.90;0.88;;;6.10;99.90;;;;;;4991007;28;20177;-92
2020/12/26 09:36:27;;;;;;;5.45;1.20;;;6.10;99.90;;;;;;5003330;28;20077;-93
2020/12/26 09:38:54;;;;;;;5.80;1.15;;;6.10;99.90;;;;;;5003597;28;20038;-93
2020/12/26 09:41:24;;;;;;;5.45;2.50;;;6.00;99.90;;;;;;4989766;28;20031;-93
2020/12/26 09:43:53;;;;;;;7.05;1.92;;;6.00;99.90;;;;;;5009187;28;20030;-94
2020/12/26 09:46:19;;;;;;;5.82;1.50;;;6.00;99.90;;;;;;4991961;28;20022;-92
2020/12/26 09:48:49;;;;;;;5.88;1.98;;;6.00;99.90;;;;;;5005280;28;20026;-93
2020/12/26 09:51:23;;;;;;;3.83;2.00;;;6.00;99.90;;;;;;5003311;28;20022;-92
2020/12/26 09:53:49;;;;;;;6.28;3.83;;;5.90;99.90;;;;;;5004681;28;20032;-93
2020/12/26 09:56:15;;;;;;;8.85;2.53;;;5.90;99.90;;;;;;5014723;28;20049;-93
2020/12/26 09:58:43;;;;;;;6.10;2.13;;;5.90;99.90;;;;;;4999737;28;20472;-93
2020/12/26 10:01:17;;;;;;;8.02;3.67;;;5.90;99.90;;;;;;5012621;28;20014;-93
2020/12/26 10:03:44;;;;;;;7.47;2.78;;;5.90;99.90;;;;;;5006403;28;20033;-94
2020/12/26 10:06:16;;;;;;;11.20;4.25;;;5.90;99.90;;;;;;4993285;28;20029;-93
2020/12/26 10:08:45;;;;;;;10.13;4.28;;;5.90;99.90;;;;;;5023367;28;20022;-94
2020/12/26 10:11:11;;;;;;;8.00;3.58;;;5.90;99.90;;;;;;5011869;28;20029;-92
2020/12/26 10:13:37;;;;;;;10.40;3.70;;;5.90;99.90;;;;;;5010915;28;20010;-93
2020/12/26 10:16:04;;;;;;;10.48;4.07;;;5.90;99.90;;;;;;5030392;28;20476;-92
2020/12/26 10:18:38;;;;;;;8.60;3.58;;;5.90;99.90;;;;;;5013689;28;20040;-94
2020/12/26 10:21:03;;;;;;;8.25;3.67;;;5.90;99.90;;;;;;5017152;28;20030;-94
2020/12/26 10:23:30;;;;;;;7.35;3.33;;;5.90;99.90;;;;;;5016049;28;20511;-92
2020/12/26 10:26:02;;;;;;;7.15;2.85;;;5.90;99.90;;;;;;5015328;28;20029;-92
2020/12/26 10:28:34;;;;;;;5.60;3.20;;;6.00;99.90;;;;;;4999702;28;20034;-92
2020/12/26 10:31:01;;;;;;;12.07;3.85;;;5.90;99.90;;;;;;5017791;28;20125;-92
2020/12/26 10:33:27;;;;;;;6.70;3.28;;;6.00;99.90;;;;;;5023227;28;20037;-91
2020/12/26 10:35:53;;;;;;;10.45;3.70;;;6.00;99.90;;;;;;5025725;28;20014;-90
2020/12/26 10:38:21;;;;;;;6.63;3.25;;;6.00;99.90;;;;;;5025264;28;20036;-91
2020/12/26 10:40:59;;;;;;;4.07;3.03;;;6.00;99.90;;;;;;5014632;28;20025;-91
2020/12/26 10:43:24;;;;;;;4.80;1.70;;;6.00;99.90;;;;;;5011095;28;20068;-90
2020/12/26 10:45:53;;;;;;;2.88;1.85;;;6.10;99.90;;;;;;5010568;28;20057;-90
2020/12/26 10:48:21;;;;;;;9.25;2.15;;;6.10;99.90;;;;;;5015604;28;20627;-90
2020/12/26 10:50:46;;;;;;;2.92;1.60;;;6.20;99.90;;;;;;5013932;28;20455;-90
2020/12/26 10:53:12;;;;;;;4.45;1.40;;;6.30;99.90;;;;;;5015939;28;20135;-91
2020/12/26 10:55:38;;;;;;;2.20;0.88;;;6.40;99.90;;;;;;5006240;28;20139;-91
2020/12/26 10:58:03;;;;;;;3.55;1.10;;;6.50;99.90;;;;;;5002539;28;20045;-90
2020/12/26 11:00:29;;;;;;;1.70;0.90;;;6.60;99.90;;;;;;5012607;28;20072;-91
2020/12/26 11:02:55;;;;;;;4.32;1.00;;;6.60;99.90;;;;;;5007496;28;20073;-92
2020/12/26 11:05:21;;;;;;;3.17;1.08;;;6.70;99.90;;;;;;5013931;28;20022;-91
2020/12/26 11:07:46;;;;;;;2.17;0.90;;;6.70;99.90;;;;;;5004966;28;20423;-91
2020/12/26 11:10:13;;;;;;;3.08;0.68;;;6.70;99.90;;;;;;5010285;28;20017;-91
2020/12/26 11:12:38;;;;;;;2.85;0.75;;;6.80;99.90;;;;;;5018267;28;20025;-92
2020/12/26 11:15:21;;;;;;;1.23;0.63;;;6.90;99.90;;;;;;5006865;28;20067;-92
2020/12/26 11:17:53;;;;;;;1.85;0.68;;;6.90;99.90;;;;;;5019125;28;20428;-94
2020/12/26 11:20:23;;;;;;;1.20;0.70;;;6.90;99.90;;;;;;5018935;28;20184;-92
2020/12/26 11:22:50;;;;;;;4.05;1.27;;;7.00;99.90;;;;;;5022041;28;20018;-93
2020/12/26 11:25:16;;;;;;;3.42;1.35;;;7.00;99.90;;;;;;5020702;28;20711;-92
2020/12/26 11:27:41;;;;;;;1.10;1.00;;;7.10;99.90;;;;;;5021039;28;20034;-93
2020/12/26 11:30:07;;;;;;;4.50;1.30;;;7.10;99.90;;;;;;5016288;28;20105;-93
2020/12/26 11:32:33;;;;;;;4.75;1.23;;;7.10;99.90;;;;;;5022678;28;20024;-93
2020/12/26 11:34:59;;;;;;;4.63;1.60;;;7.10;99.90;;;;;;5006393;28;20439;-94
2020/12/26 11:37:31;;;;;;;3.75;1.63;;;7.10;99.90;;;;;;5015862;28;20022;-92
2020/12/26 11:40:02;;;;;;;4.07;1.75;;;7.20;99.90;;;;;;5018387;28;20488;-93
2020/12/26 11:42:28;;;;;;;3.42;1.40;;;7.20;99.90;;;;;;5020381;28;20064;-93
2020/12/26 11:44:56;;;;;;;7.57;1.52;;;7.20;99.90;;;;;;5003579;28;20104;-91
2020/12/26 11:47:22;;;;;;;1.85;1.45;;;7.20;99.90;;;;;;5022337;28;20437;-93
2020/12/26 11:49:48;;;;;;;2.90;1.50;;;7.20;99.90;;;;;;5011069;28;20022;-93
2020/12/26 11:52:15;;;;;;;6.45;1.55;;;7.20;99.90;;;;;;5014162;28;20475;-92
2020/12/26 11:54:40;;;;;;;1.63;1.10;;;7.20;99.90;;;;;;5020432;28;20022;-92
2020/12/26 11:57:06;;;;;;;2.88;1.30;;;7.30;99.90;;;;;;5013364;28;20164;-93
2020/12/26 11:59:32;;;;;;;4.03;1.20;;;7.30;99.90;;;;;;5011317;28;20042;-93
2020/12/26 12:01:59;;;;;;;4.25;1.40;;;7.20;99.90;;;;;;5022951;28;20033;-93
2020/12/26 12:04:25;;;;;;;5.43;1.10;;;7.30;99.90;;;;;;5014479;28;20034;-93
2020/12/26 12:06:51;;;;;;;1.95;0.80;;;7.20;99.90;;;;;;5033392;28;20022;-92
2020/12/26 12:09:17;;;;;;;1.70;0.80;;;7.20;99.90;;;;;;5016583;28;20036;-92
2020/12/26 12:11:42;;;;;;;3.75;0.90;;;7.20;99.90;;;;;;5024830;28;20030;-93
2020/12/26 12:14:08;;;;;;;3.92;1.52;;;7.20;99.90;;;;;;5018056;28;20025;-93
2020/12/26 12:16:34;;;;;;;3.80;0.80;;;7.20;99.90;;;;;;5014045;28;20030;-92
2020/12/26 12:19:02;;;;;;;3.63;1.10;;;7.30;99.90;;;;;;5011277;28;20487;-93
2020/12/26 12:21:28;;;;;;;3.47;1.00;;;7.30;99.90;;;;;;5022882;28;20164;-93
2020/12/26 12:23:54;;;;;;;2.20;0.90;;;7.30;99.90;;;;;;5021877;28;20137;-94
2020/12/26 12:26:26;;;;;;;1.42;0.98;;;7.40;99.90;;;;;;5005612;28;20028;-92
2020/12/26 12:28:55;;;;;;;3.25;1.10;;;7.40;99.90;;;;;;5021111;28;20074;-92
2020/12/26 12:31:25;;;;;;;6.85;2.00;;;7.40;99.90;;;;;;5010152;28;20030;-91
2020/12/26 12:33:51;;;;;;;1.63;0.80;;;7.40;99.90;;;;;;5015274;28;20025;-92
2020/12/26 12:36:18;;;;;;;1.55;1.20;;;7.40;99.90;;;;;;5021740;28;20022;-93
2020/12/26 12:38:43;;;;;;;2.92;0.80;;;7.40;99.90;;;;;;5022346;28;20040;-93
2020/12/26 12:41:09;;;;;;;4.20;0.93;;;7.40;99.90;;;;;;5023651;28;20033;-94
2020/12/26 12:43:35;;;;;;;2.70;1.00;;;7.50;99.90;;;;;;5002481;28;20030;-91
2020/12/26 12:46:01;;;;;;;3.90;0.93;;;7.50;99.90;;;;;;5019998;28;20042;-92
2020/12/26 12:48:27;;;;;;;1.20;0.60;;;7.50;99.90;;;;;;5020869;28;20092;-92
2020/12/26 12:50:55;;;;;;;0.85;0.40;;;7.40;99.90;;;;;;5014233;28;20034;-93
2020/12/26 12:53:20;;;;;;;2.40;0.60;;;7.40;99.90;;;;;;5020341;28;20049;-92
2020/12/26 12:55:47;;;;;;;4.65;0.70;;;7.40;99.90;;;;;;5011290;28;20052;-92
2020/12/26 12:58:13;;;;;;;1.77;0.57;;;7.40;99.90;;;;;;5004365;28;20037;-94
2020/12/26 13:00:38;;;;;;;2.08;0.80;;;7.40;99.90;;;;;;5001736;28;20117;-93
2020/12/26 13:03:04;;;;;;;2.55;0.80;;;7.40;99.90;;;;;;5021289;28;20029;-90